createdAt,value
2019-02-21T00:02:34.272Z,15.40
2019-02-21T00:05:17.736Z,14.93
2019-02-21T00:08:08.820Z,13.03
2019-02-21T00:10:52.274Z,18.32
2019-02-21T00:13:43.481Z,17.00
2019-02-21T00:16:27.252Z,17.67
2019-02-21T00:19:18.433Z,19.30
2019-02-21T00:22:01.915Z,18.55
2019-02-21T00:24:53.326Z,16.62
2019-02-21T00:27:37.534Z,16.70
2019-02-21T00:30:21.437Z,15.10
2019-02-21T00:33:05.972Z,17.73
2019-02-21T00:35:57.080Z,17.67
2019-02-21T00:38:40.517Z,17.42
2019-02-21T00:41:31.810Z,19.20
2019-02-21T00:44:15.465Z,18.65
2019-02-21T00:46:59.532Z,17.87
2019-02-21T00:49:50.721Z,18.50
2019-02-21T00:52:34.426Z,17.57
2019-02-21T00:55:27.769Z,17.23
2019-02-21T00:58:19.762Z,15.95
2019-02-21T01:01:10.932Z,18.25
2019-02-21T01:03:54.318Z,19.37
2019-02-21T01:06:38.368Z,19.70
2019-02-21T01:09:21.672Z,17.90
2019-02-21T01:12:05.753Z,18.15
2019-02-21T01:14:56.927Z,15.68
2019-02-21T01:17:40.620Z,16.48
2019-02-21T01:20:24.223Z,15.90
2019-02-21T01:23:15.883Z,14.33
2019-02-21T01:25:59.537Z,17.60
2019-02-21T01:28:50.596Z,16.00
2019-02-21T01:31:34.151Z,15.68
2019-02-21T01:34:25.223Z,15.45
2019-02-21T01:37:09.002Z,14.87
2019-02-21T01:39:52.456Z,15.28
2019-02-21T01:42:43.541Z,16.12
2019-02-21T01:45:27.556Z,14.23
2019-02-21T01:48:18.586Z,17.65
2019-02-21T01:51:02.617Z,15.83
2019-02-21T01:53:53.723Z,16.70
2019-02-21T01:56:37.372Z,15.95
2019-02-21T01:59:28.895Z,16.10
2019-02-21T02:02:12.807Z,17.10
2019-02-21T02:05:03.858Z,16.05
2019-02-21T02:07:49.274Z,15.80
2019-02-21T02:10:40.269Z,16.67
2019-02-21T02:13:25.009Z,15.90
2019-02-21T02:16:16.170Z,17.62
2019-02-21T02:19:00.310Z,15.70
2019-02-21T02:21:51.346Z,15.75
2019-02-21T02:24:35.866Z,16.75
2019-02-21T02:27:26.824Z,15.48
2019-02-21T02:30:10.148Z,17.85
2019-02-21T02:33:01.353Z,18.57
2019-02-21T02:35:44.868Z,18.90
2019-02-21T02:38:36.053Z,16.95
2019-02-21T02:41:19.545Z,16.23
2019-02-21T02:44:10.617Z,15.95
2019-02-21T02:46:42.615Z,16.05
2019-02-21T02:49:34.018Z,15.05
2019-02-21T02:52:06.366Z,15.50
2019-02-21T02:54:38.653Z,15.63
2019-02-21T03:00:34.378Z,15.40
2019-02-21T03:03:25.619Z,16.20
2019-02-21T03:06:09.175Z,16.35
2019-02-21T03:09:00.371Z,16.12
2019-02-21T03:11:45.704Z,15.75
2019-02-21T03:14:36.690Z,16.77
2019-02-21T03:17:20.346Z,16.42
2019-02-21T03:20:11.375Z,15.53
2019-02-21T03:22:54.819Z,18.87
2019-02-21T03:25:45.866Z,17.15
2019-02-21T03:28:30.266Z,15.50
2019-02-21T03:37:13.478Z,16.73
2019-02-21T03:39:57.448Z,17.15
2019-02-21T03:42:48.964Z,16.62
2019-02-21T03:45:33.379Z,14.85
2019-02-21T03:48:24.432Z,15.75
2019-02-21T03:51:08.241Z,17.52
2019-02-21T03:53:59.366Z,16.70
2019-02-21T03:56:42.639Z,15.93
2019-02-21T03:59:33.879Z,15.43
2019-02-21T04:02:17.403Z,16.40
2019-02-21T04:05:09.479Z,17.65
2019-02-21T04:07:52.820Z,15.60
2019-02-21T04:10:43.880Z,15.80
2019-02-21T04:13:27.998Z,17.12
2019-02-21T04:16:19.049Z,16.65
2019-02-21T04:19:02.312Z,18.10
2019-02-21T04:21:53.304Z,18.87
2019-02-21T04:24:37.344Z,18.90
2019-02-21T04:27:21.219Z,17.67
2019-02-21T04:30:12.308Z,16.93
2019-02-21T04:32:56.489Z,18.37
2019-02-21T04:35:28.469Z,16.85
2019-02-21T04:38:13.193Z,17.57
2019-02-21T04:41:04.603Z,18.07
2019-02-21T04:43:36.615Z,19.12
2019-02-21T04:46:27.685Z,19.12
2019-02-21T04:49:11.433Z,18.55
2019-02-21T04:52:13.501Z,18.15
2019-02-21T04:55:05.649Z,19.00
2019-02-21T04:57:50.796Z,18.80
2019-02-21T05:00:41.868Z,18.65
2019-02-21T05:03:26.198Z,18.45
2019-02-21T05:06:17.174Z,18.05
2019-02-21T05:09:00.758Z,19.20
2019-02-21T05:11:53.507Z,23.38
2019-02-21T05:14:37.054Z,20.37
2019-02-21T05:17:21.083Z,17.90
2019-02-21T05:20:05.227Z,18.15
2019-02-21T05:22:56.354Z,19.10
2019-02-21T05:25:40.575Z,19.27
2019-02-21T05:28:32.966Z,19.50
2019-02-21T05:34:32.299Z,16.57
2019-02-21T05:37:42.255Z,17.48
2019-02-21T05:40:46.392Z,18.35
2019-02-21T05:43:56.277Z,18.65
2019-02-21T05:46:44.781Z,18.60
2019-02-21T05:49:54.713Z,16.82
2019-02-21T05:52:50.454Z,18.12
2019-02-21T05:56:00.284Z,18.42
2019-02-21T05:59:03.314Z,18.87
2019-02-21T06:02:13.303Z,18.32
2019-02-21T06:05:15.734Z,18.98
2019-02-21T06:08:25.683Z,20.08
2019-02-21T06:11:28.764Z,19.77
2019-02-21T06:14:38.688Z,18.48
2019-02-21T06:17:41.263Z,20.60
2019-02-21T06:20:51.427Z,17.17
2019-02-21T06:23:55.457Z,18.17
2019-02-21T06:27:05.397Z,17.27
2019-02-21T06:29:56.875Z,17.48
2019-02-21T06:32:48.085Z,17.57
2019-02-21T06:35:33.088Z,18.67
2019-02-21T06:38:24.515Z,17.98
2019-02-21T06:41:07.941Z,17.77
2019-02-21T06:43:58.980Z,19.25
2019-02-21T06:46:42.726Z,18.45
2019-02-21T06:52:42.100Z,16.55
2019-02-21T06:55:14.297Z,18.02
2019-02-21T06:57:57.988Z,20.65
2019-02-21T07:00:49.155Z,18.73
2019-02-21T07:03:21.136Z,18.62
2019-02-21T07:05:53.179Z,20.62
2019-02-21T07:08:44.389Z,19.75
2019-02-21T07:11:28.414Z,18.77
2019-02-21T07:14:19.428Z,19.17
2019-02-21T07:16:51.271Z,18.55
2019-02-21T07:19:35.567Z,17.25
2019-02-21T07:22:26.664Z,18.75
2019-02-21T07:28:22.359Z,18.45
2019-02-21T07:31:06.299Z,19.57
2019-02-21T07:33:57.468Z,19.20
2019-02-21T07:36:41.169Z,18.75
2019-02-21T07:39:35.240Z,19.92
2019-02-21T07:42:17.384Z,20.85
2019-02-21T07:45:00.770Z,18.60
2019-02-21T07:47:51.823Z,19.20
2019-02-21T07:50:36.041Z,23.27
2019-02-21T07:53:27.141Z,22.70
2019-02-21T07:56:10.737Z,20.80
2019-02-21T07:59:01.754Z,19.98
2019-02-21T08:01:45.273Z,19.80
2019-02-21T08:04:37.155Z,20.37
2019-02-21T08:07:40.551Z,19.25
2019-02-21T08:10:33.890Z,20.25
2019-02-21T08:13:22.878Z,19.57
2019-02-21T08:16:13.919Z,20.20
2019-02-21T08:18:58.175Z,19.20
2019-02-21T08:21:49.288Z,20.85
2019-02-21T08:24:53.251Z,19.60
2019-02-21T08:27:44.300Z,20.50
2019-02-21T08:30:29.202Z,21.12
2019-02-21T08:36:34.464Z,20.97
2019-02-21T08:39:25.491Z,20.10
2019-02-21T08:42:09.240Z,20.60
2019-02-21T08:45:00.414Z,18.98
2019-02-21T08:47:44.342Z,20.60
2019-02-21T08:50:36.490Z,21.02
2019-02-21T08:53:20.029Z,21.45
2019-02-21T08:56:11.223Z,21.23
2019-02-21T08:58:55.293Z,21.50
2019-02-21T09:01:46.834Z,20.88
2019-02-21T09:04:31.130Z,21.82
2019-02-21T09:07:22.146Z,22.05
2019-02-21T09:10:06.205Z,21.30
2019-02-21T09:12:38.288Z,22.73
2019-02-21T09:15:21.783Z,21.97
2019-02-21T09:18:12.927Z,22.42
2019-02-21T09:20:57.112Z,22.13
2019-02-21T09:23:40.544Z,21.77
2019-02-21T09:26:24.080Z,21.23
2019-02-21T09:29:15.228Z,21.07
2019-02-21T09:31:59.433Z,21.25
2019-02-21T09:34:50.880Z,20.30
2019-02-21T09:37:42.314Z,22.17
2019-02-21T09:40:28.418Z,20.82
2019-02-21T09:43:18.991Z,21.50
2019-02-21T09:46:03.241Z,23.52
2019-02-21T09:48:54.431Z,21.90
2019-02-21T09:51:38.259Z,22.55
2019-02-21T09:54:30.319Z,23.18
2019-02-21T09:57:13.811Z,24.12
2019-02-21T10:00:05.222Z,24.45
2019-02-21T10:02:54.346Z,23.57
2019-02-21T10:05:44.191Z,23.70
2019-02-21T10:08:27.680Z,24.80
2019-02-21T10:11:11.594Z,22.80
2019-02-21T10:14:03.758Z,24.43
2019-02-21T10:16:49.613Z,22.42
2019-02-21T10:19:35.388Z,23.50
2019-02-21T10:22:26.267Z,22.95
2019-02-21T10:25:23.112Z,23.77
2019-02-21T10:28:19.707Z,24.37
2019-02-21T10:31:03.540Z,23.32
2019-02-21T10:33:47.547Z,24.77
2019-02-21T10:36:38.762Z,22.93
2019-02-21T10:39:22.986Z,22.82
2019-02-21T10:42:14.067Z,22.13
2019-02-21T10:44:57.791Z,22.93
2019-02-21T10:47:48.873Z,21.02
2019-02-21T10:50:33.025Z,22.30
2019-02-21T10:53:24.218Z,21.48
2019-02-21T10:56:06.448Z,24.18
2019-02-21T10:58:50.392Z,22.93
2019-02-21T11:01:41.460Z,25.55
2019-02-21T11:04:25.535Z,25.25
2019-02-21T11:07:16.539Z,23.92
2019-02-21T11:10:00.451Z,21.93
2019-02-21T11:12:51.492Z,21.12
2019-02-21T11:15:36.501Z,20.60
2019-02-21T11:18:27.716Z,22.13
2019-02-21T11:21:12.095Z,17.85
2019-02-21T11:24:03.245Z,21.70
2019-02-21T11:26:46.979Z,19.85
2019-02-21T11:29:38.041Z,20.43
2019-02-21T11:32:21.968Z,18.65
2019-02-21T11:35:13.111Z,18.90
2019-02-21T11:37:56.383Z,18.23
2019-02-21T11:40:47.483Z,18.87
2019-02-21T11:43:31.140Z,17.30
2019-02-21T11:46:22.174Z,17.80
2019-02-21T11:49:05.552Z,17.42
2019-02-21T11:51:37.681Z,17.17
2019-02-21T11:54:09.724Z,18.32
2019-02-21T11:57:00.859Z,20.37
2019-02-21T11:59:44.874Z,17.75
2019-02-21T12:02:38.896Z,18.12
2019-02-21T12:05:32.514Z,20.15
2019-02-21T12:08:19.599Z,19.50
2019-02-21T12:11:04.458Z,18.77
2019-02-21T12:13:56.523Z,18.87
2019-02-21T12:16:28.509Z,20.32
2019-02-21T12:19:19.726Z,17.35
2019-02-21T12:22:03.973Z,18.55
2019-02-21T12:24:47.813Z,17.48
2019-02-21T12:27:32.550Z,17.30
2019-02-21T12:30:17.197Z,17.70
2019-02-21T12:33:08.809Z,17.55
2019-02-21T12:35:52.835Z,17.40
2019-02-21T12:38:43.978Z,19.00
2019-02-21T12:41:27.838Z,17.80
2019-02-21T12:44:18.850Z,19.32
2019-02-21T12:47:03.062Z,18.55
2019-02-21T12:49:55.412Z,18.92
2019-02-21T12:52:48.685Z,17.17
2019-02-21T12:55:39.801Z,17.80
2019-02-21T12:58:23.358Z,20.55
2019-02-21T13:01:14.569Z,19.35
2019-02-21T13:03:58.629Z,18.55
2019-02-21T13:06:49.709Z,18.02
2019-02-21T13:09:33.569Z,20.95
2019-02-21T13:15:27.608Z,20.02
2019-02-21T13:18:15.875Z,21.05
2019-02-21T13:20:57.430Z,19.15
2019-02-21T13:23:48.678Z,20.50
2019-02-21T13:26:32.879Z,18.75
2019-02-21T13:29:23.854Z,19.37
2019-02-21T13:32:07.656Z,17.40
2019-02-21T13:34:51.795Z,18.75
2019-02-21T13:37:42.978Z,19.20
2019-02-21T13:40:26.373Z,17.67
2019-02-21T13:43:17.612Z,18.02
2019-02-21T13:46:01.717Z,17.05
2019-02-21T13:48:52.745Z,17.37
2019-02-21T13:51:36.467Z,16.20
2019-02-21T13:54:27.613Z,16.32
2019-02-21T13:57:11.801Z,15.43
2019-02-21T14:00:02.956Z,15.48
2019-02-21T14:02:48.693Z,14.60
2019-02-21T14:05:39.926Z,14.38
2019-02-21T14:08:23.607Z,14.03
2019-02-21T14:11:14.537Z,13.62
2019-02-21T14:13:58.480Z,14.50
2019-02-21T14:19:53.037Z,13.40
2019-02-21T14:22:42.155Z,13.48
2019-02-21T14:25:40.710Z,14.85
2019-02-21T14:28:37.646Z,13.15
2019-02-21T14:31:21.317Z,12.53
2019-02-21T14:34:06.210Z,13.18
2019-02-21T14:36:49.779Z,13.20
2019-02-21T14:39:40.867Z,13.68
2019-02-21T14:42:25.047Z,13.75
2019-02-21T14:45:17.335Z,12.85
2019-02-21T14:48:02.909Z,12.63
2019-02-21T14:50:54.031Z,13.78
2019-02-21T14:53:37.934Z,13.22
2019-02-21T14:56:29.110Z,12.95
2019-02-21T14:59:12.969Z,12.78
2019-02-21T15:02:06.155Z,12.70
2019-02-21T15:05:10.095Z,14.75
2019-02-21T15:08:01.566Z,12.95
2019-02-21T15:10:45.443Z,13.25
2019-02-21T15:13:36.509Z,13.60
2019-02-21T15:16:20.495Z,13.85
2019-02-21T15:19:12.648Z,13.30
2019-02-21T15:21:57.030Z,15.08
2019-02-21T15:24:48.330Z,13.90
2019-02-21T15:27:32.397Z,14.78
2019-02-21T15:30:24.737Z,14.83
2019-02-21T15:33:09.692Z,16.35
2019-02-21T15:36:00.912Z,12.70
2019-02-21T15:38:44.670Z,15.03
2019-02-21T15:41:28.752Z,15.58
2019-02-21T15:44:19.786Z,13.55
2019-02-21T15:47:03.195Z,16.40
2019-02-21T15:49:54.428Z,14.70
2019-02-21T15:52:38.393Z,14.45
2019-02-21T15:55:32.034Z,14.87
2019-02-21T15:58:20.656Z,15.70
2019-02-21T16:01:14.237Z,14.58
2019-02-21T16:04:16.910Z,13.30
2019-02-21T16:07:09.072Z,14.85
2019-02-21T16:09:52.633Z,14.53
2019-02-21T16:12:44.265Z,13.90
2019-02-21T16:15:48.503Z,14.03
2019-02-21T16:18:40.127Z,15.00
2019-02-21T16:21:24.391Z,16.05
2019-02-21T16:24:17.101Z,15.23
2019-02-21T16:27:00.548Z,14.80
2019-02-21T16:29:51.591Z,14.13
2019-02-21T16:32:35.828Z,14.20
2019-02-21T16:35:27.469Z,14.87
2019-02-21T16:38:31.625Z,13.78
2019-02-21T16:41:22.859Z,15.48
2019-02-21T16:44:07.281Z,14.30
2019-02-21T16:46:58.408Z,15.98
2019-02-21T16:49:42.181Z,17.62
2019-02-21T16:52:25.832Z,14.83
2019-02-21T16:55:18.404Z,15.25
2019-02-21T16:58:02.478Z,14.85
2019-02-21T17:00:53.242Z,16.00
2019-02-21T17:03:40.393Z,16.57
2019-02-21T17:06:24.228Z,16.23
2019-02-21T17:09:15.699Z,15.58
2019-02-21T17:11:58.020Z,16.82
2019-02-21T17:14:49.067Z,14.58
2019-02-21T17:17:33.099Z,19.42
2019-02-21T17:20:24.181Z,16.75
2019-02-21T17:23:08.381Z,20.02
2019-02-21T17:25:59.503Z,17.37
2019-02-21T17:28:45.064Z,18.42
2019-02-21T17:31:37.309Z,17.55
2019-02-21T17:34:40.209Z,19.57
2019-02-21T17:37:31.429Z,18.20
2019-02-21T17:40:16.799Z,18.35
2019-02-21T17:43:08.183Z,19.85
2019-02-21T17:45:51.787Z,20.90
2019-02-21T17:48:42.842Z,21.62
2019-02-21T17:51:26.873Z,20.02
2019-02-21T17:53:58.868Z,23.20
2019-02-21T17:56:42.408Z,21.50
2019-02-21T17:59:33.493Z,19.05
2019-02-21T18:02:17.049Z,19.95
2019-02-21T18:05:08.798Z,20.10
2019-02-21T18:07:52.819Z,17.92
2019-02-21T18:10:43.947Z,19.42
2019-02-21T18:13:29.678Z,21.57
2019-02-21T18:16:14.422Z,20.85
2019-02-21T18:18:58.521Z,20.35
2019-02-21T18:21:49.535Z,20.80
2019-02-21T18:24:32.748Z,20.50
2019-02-21T18:27:23.948Z,22.27
2019-02-21T18:30:07.785Z,22.37
2019-02-21T18:32:58.812Z,21.05
2019-02-21T18:35:42.156Z,21.70
2019-02-21T18:38:14.129Z,23.75
2019-02-21T18:41:05.310Z,27.00
2019-02-21T18:43:48.905Z,22.13
2019-02-21T18:46:40.057Z,21.73
2019-02-21T18:49:24.068Z,21.97
2019-02-21T18:52:15.258Z,22.73
2019-02-21T18:54:58.795Z,20.92
2019-02-21T18:57:43.070Z,22.27
2019-02-21T19:00:34.191Z,24.50
2019-02-21T19:03:18.210Z,22.10
2019-02-21T19:06:09.218Z,20.80
2019-02-21T19:08:52.779Z,22.00
2019-02-21T19:11:43.865Z,24.67
2019-02-21T19:14:27.792Z,25.62
2019-02-21T19:17:11.599Z,25.05
2019-02-21T19:20:02.651Z,22.60
2019-02-21T19:22:47.120Z,23.10
2019-02-21T19:25:30.882Z,22.93
2019-02-21T19:28:03.152Z,25.40
2019-02-21T19:30:58.843Z,22.50
2019-02-21T19:33:54.844Z,22.20
2019-02-21T19:36:41.273Z,24.85
2019-02-21T19:39:32.674Z,24.20
2019-02-21T19:42:16.985Z,22.05
2019-02-21T19:45:05.549Z,22.27
2019-02-21T19:47:56.814Z,24.10
2019-02-21T19:50:40.647Z,22.30
2019-02-21T19:53:23.987Z,20.85
2019-02-21T19:56:07.626Z,22.17
2019-02-21T19:58:39.677Z,24.20
2019-02-21T20:01:11.774Z,21.93
2019-02-21T20:03:43.722Z,23.00
2019-02-21T20:06:27.845Z,22.85
2019-02-21T20:09:19.451Z,22.70
2019-02-21T20:12:03.275Z,22.60
2019-02-21T20:14:47.752Z,21.87
2019-02-21T20:17:39.054Z,23.35
2019-02-21T20:20:22.798Z,22.67
2019-02-21T20:23:13.878Z,19.90
2019-02-21T20:25:59.047Z,21.60
2019-02-21T20:28:50.270Z,20.60
2019-02-21T20:31:34.349Z,18.67
2019-02-21T20:34:06.743Z,18.85
2019-02-21T20:36:51.515Z,20.08
2019-02-21T20:39:36.128Z,22.25
2019-02-21T20:42:20.012Z,22.07
2019-02-21T20:44:52.161Z,18.77
2019-02-21T20:47:43.295Z,19.07
2019-02-21T20:50:26.649Z,17.75
2019-02-21T20:53:17.849Z,18.80
2019-02-21T20:56:03.025Z,18.48
2019-02-21T20:58:54.492Z,18.67
2019-02-21T21:01:40.253Z,17.70
2019-02-21T21:04:31.395Z,16.57
2019-02-21T21:07:24.790Z,18.27
2019-02-21T21:13:07.887Z,16.62
2019-02-21T21:15:59.137Z,14.73
2019-02-21T21:18:43.326Z,16.10
2019-02-21T21:21:26.718Z,14.90
2019-02-21T21:24:10.373Z,15.68
2019-02-21T21:27:01.885Z,16.85
2019-02-21T21:29:46.002Z,17.35
2019-02-21T21:32:37.291Z,16.17
2019-02-21T21:35:21.445Z,15.32
2019-02-21T21:38:23.403Z,15.80
2019-02-21T21:41:16.854Z,16.95
2019-02-21T21:44:01.931Z,16.70
2019-02-21T21:46:48.169Z,16.25
2019-02-21T21:49:39.392Z,16.17
2019-02-21T21:52:22.712Z,14.93
2019-02-21T21:55:13.977Z,15.78
2019-02-21T21:57:57.549Z,17.55
2019-02-21T22:00:41.239Z,19.00
2019-02-21T22:03:33.439Z,16.97
2019-02-21T22:06:18.078Z,16.77
2019-02-21T22:09:09.459Z,15.98
2019-02-21T22:11:55.532Z,17.60
2019-02-21T22:14:46.650Z,17.32
2019-02-21T22:17:30.201Z,17.48
2019-02-21T22:20:21.272Z,16.42
2019-02-21T22:23:05.612Z,17.75
2019-02-21T22:25:57.631Z,16.70
2019-02-21T22:28:41.342Z,17.27
2019-02-21T22:31:32.439Z,18.12
2019-02-21T22:34:16.471Z,18.90
2019-02-21T22:37:00.551Z,16.70
2019-02-21T22:39:51.750Z,17.95
2019-02-21T22:42:42.898Z,18.15
2019-02-21T22:45:27.950Z,16.37
2019-02-21T22:48:19.117Z,18.37
2019-02-21T22:51:03.164Z,19.42
2019-02-21T22:53:54.582Z,16.85
2019-02-21T22:56:38.294Z,18.85
2019-02-21T22:59:29.498Z,17.80
2019-02-21T23:02:12.807Z,17.50
2019-02-21T23:05:31.136Z,18.70
2019-02-21T23:08:19.914Z,17.57
2019-02-21T23:11:11.219Z,18.20
2019-02-21T23:13:55.780Z,18.12
2019-02-21T23:16:39.123Z,17.87
2019-02-21T23:19:24.198Z,18.45
2019-02-21T23:22:15.301Z,18.73
2019-02-21T23:24:59.012Z,17.45
2019-02-21T23:27:50.136Z,16.82
2019-02-21T23:30:33.998Z,16.07
2019-02-21T23:33:25.992Z,18.70
2019-02-21T23:36:10.229Z,17.55
2019-02-21T23:38:54.331Z,19.50
2019-02-21T23:41:45.490Z,18.95
2019-02-21T23:44:29.376Z,18.23
2019-02-21T23:47:12.843Z,17.42
2019-02-21T23:49:57.505Z,18.95
2019-02-21T23:52:48.668Z,19.15
2019-02-21T23:55:32.516Z,19.48
2019-02-21T23:58:24.017Z,17.82
